Terminal Aerodrome Forecast
Issued by NWS Missoula, MT

Home | Current Version | Previous Version | Text Only | Print | Product List | Glossary On
Versions: 1 2 3 4 5 6 7 8 9 10 11 12 13
278
FTUS45 KMSO 272336
TAFGPI
TAF
KGPI 272336Z 2800/2824 28011G18KT P6SM FEW100
     FM280300 20005KT P6SM SKC
     FM281900 22008G15KT P6SM SCT080=

USA.gov is the U.S. government's official web portal to all federal, state and local government web resources and services.